This is the latest recevied weather packets stored in our database for station/object SQ6RR-12. If no packets are shown the sender has not sent any weather packets the latest 10 day(s).
| Time | Temp. | Humidity | Pressure | Rain* | Wind** | Luminosity | Snow |
|---|---|---|---|---|---|---|---|
| 1777569185 | 13.89° C | 39% | 1029.4 hPa | 0 mm | - | - | - |
| 1777568928 | 14.44° C | 38% | 1029.3 hPa | 0 mm | - | - | - |
| 1777568654 | 14.44° C | 38% | 1029.3 hPa | 0 mm | - | - | - |
| 1777568370 | 13.89° C | 39% | 1029.4 hPa | 0 mm | - | - | - |
| 1777568093 | 13.89° C | 38% | 1029.4 hPa | 0 mm | - | - | - |
| 1777567822 | 14.44° C | 37% | 1029.3 hPa | 0 mm | - | - | - |
| 1777567558 | 14.44° C | 37% | 1029.3 hPa | 0 mm | - | - | - |
| 1777567287 | 15° C | 37% | 1029.3 hPa | 0 mm | - | - | - |
| 1777567013 | 15° C | 38% | 1029.3 hPa | 0 mm | - | - | - |
| 1777566743 | 15° C | 37% | 1029.3 hPa | 0 mm | - | - | - |
| 1777566487 | 14.44° C | 37% | 1029.3 hPa | 0 mm | - | - | - |
| 1777566227 | 15° C | 37% | 1029.4 hPa | 0 mm | - | - | - |
| 1777565971 | 14.44° C | 36% | 1029.4 hPa | 0 mm | - | - | - |
| 1777565701 | 15° C | 35% | 1029.4 hPa | 0 mm | - | - | - |
| 1777565435 | 15.56° C | 35% | 1029.5 hPa | 0 mm | - | - | - |
| 1777565186 | 15° C | 37% | 1029.4 hPa | 0 mm | - | - | - |
| 1777564911 | 15° C | 36% | 1029.5 hPa | 0 mm | - | - | - |
| 1777564663 | 13.89° C | 36% | 1029.6 hPa | 0 mm | - | - | - |
| 1777564411 | 15° C | 34% | 1029.5 hPa | 0 mm | - | - | - |
| 1777564145 | 15° C | 35% | 1029.6 hPa | 0 mm | - | - | - |
| 1777563887 | 15° C | 34% | 1029.6 hPa | 0 mm | - | - | - |
| 1777563615 | 15° C | 34% | 1029.7 hPa | 0 mm | - | - | - |
| 1777563345 | 15.56° C | 33% | 1029.6 hPa | 0 mm | - | - | - |
| 1777563070 | 15° C | 36% | 1029.5 hPa | 0 mm | - | - | - |
| 1777562798 | 15.56° C | 34% | 1029.6 hPa | 0 mm | - | - | - |
* Rain latest hour (hover to see other rain measurements)
** Current wind speed in m/s (hover to see current wind gust speed)